Time;durP1;ratioP1;P1;durP2;ratioP2;P2;SDS_P1;SDS_P2;PMS_P1;PMS_P2;Temp;Humidity;BMP_temperature;BMP_pressure;BME280_temperature;BME280_humidity;BME280_pressure;Samples;Min_cycle;Max_cycle;Signal;HPM_P1;HPM_P2
2022/03/10 00:02:08;;;;;;;4.65;4.10;;;12.40;99.90;;;;;;5035300;28;20036;-69
2022/03/10 00:04:37;;;;;;;5.63;4.15;;;12.40;99.90;;;;;;5033762;28;20479;-69
2022/03/10 00:07:04;;;;;;;6.50;4.50;;;12.30;99.90;;;;;;5035918;28;20390;-68
2022/03/10 00:09:32;;;;;;;4.13;3.70;;;12.30;99.90;;;;;;5036058;28;20029;-70
2022/03/10 00:11:59;;;;;;;5.07;4.53;;;12.30;99.90;;;;;;5035806;28;20053;-68
2022/03/10 00:14:25;;;;;;;5.75;4.20;;;12.30;99.90;;;;;;5035913;28;20029;-69
2022/03/10 00:16:50;;;;;;;4.50;4.10;;;12.40;99.90;;;;;;5033869;28;20045;-70
2022/03/10 00:19:17;;;;;;;4.95;4.22;;;12.20;99.90;;;;;;5033068;28;20053;-69
2022/03/10 00:21:43;;;;;;;6.70;4.18;;;12.20;99.90;;;;;;5038488;28;20025;-70
2022/03/10 00:24:09;;;;;;;5.85;4.32;;;12.30;99.90;;;;;;5036447;28;20390;-69
2022/03/10 00:26:37;;;;;;;6.45;4.20;;;12.20;99.90;;;;;;5036774;28;20353;-69
2022/03/10 00:29:06;;;;;;;6.15;4.55;;;12.20;99.90;;;;;;5036564;28;20029;-69
2022/03/10 00:31:32;;;;;;;4.80;4.18;;;12.20;99.90;;;;;;5031289;28;20030;-70
2022/03/10 00:33:58;;;;;;;5.55;4.07;;;12.10;99.90;;;;;;5036802;28;20022;-69
2022/03/10 00:36:24;;;;;;;5.05;4.20;;;12.10;99.90;;;;;;5035637;28;20056;-70
2022/03/10 00:38:50;;;;;;;5.13;4.35;;;12.10;99.90;;;;;;5034697;28;20025;-69
2022/03/10 00:41:17;;;;;;;5.80;4.70;;;12.00;99.90;;;;;;5036553;28;20073;-68
2022/03/10 00:43:43;;;;;;;5.57;4.45;;;12.10;99.90;;;;;;5033945;28;20021;-69
2022/03/10 00:46:09;;;;;;;5.20;4.45;;;12.20;99.90;;;;;;5034023;28;20470;-69
2022/03/10 00:48:36;;;;;;;5.30;4.18;;;12.10;99.90;;;;;;5035753;28;20064;-68
2022/03/10 00:51:05;;;;;;;5.00;4.60;;;12.10;99.90;;;;;;5035923;28;20065;-69
2022/03/10 00:53:31;;;;;;;5.68;4.47;;;12.10;99.90;;;;;;5036138;28;20036;-68
2022/03/10 00:55:57;;;;;;;5.18;4.20;;;12.00;99.90;;;;;;5035903;28;20033;-69
2022/03/10 00:58:22;;;;;;;5.97;4.35;;;12.10;99.90;;;;;;5031584;28;20141;-68
2022/03/10 01:00:51;;;;;;;6.43;5.20;;;12.00;99.90;;;;;;5037587;28;20021;-69
2022/03/10 01:03:17;;;;;;;5.80;4.55;;;12.00;99.90;;;;;;5035933;28;20040;-68
2022/03/10 01:05:44;;;;;;;5.10;4.60;;;12.00;99.90;;;;;;5035792;28;20491;-68
2022/03/10 01:08:09;;;;;;;7.40;4.90;;;11.90;99.90;;;;;;5035770;28;20032;-69
2022/03/10 01:10:35;;;;;;;5.75;4.97;;;11.80;99.90;;;;;;5031601;28;20380;-68
2022/03/10 01:13:01;;;;;;;7.45;4.80;;;11.90;99.90;;;;;;5035644;28;20075;-70
2022/03/10 01:15:28;;;;;;;6.78;4.35;;;11.80;99.90;;;;;;5036122;28;20501;-69
2022/03/10 01:17:55;;;;;;;5.43;4.70;;;11.80;99.90;;;;;;5035793;28;20411;-69
2022/03/10 01:20:22;;;;;;;4.95;4.45;;;11.80;99.90;;;;;;5035637;28;20025;-68
2022/03/10 01:22:48;;;;;;;5.97;4.85;;;12.00;99.90;;;;;;5034053;28;20111;-69
2022/03/10 01:25:14;;;;;;;6.28;4.40;;;11.80;99.90;;;;;;5032433;28;20084;-69
2022/03/10 01:27:41;;;;;;;8.23;4.82;;;11.80;99.90;;;;;;5035575;28;20025;-69
2022/03/10 01:30:08;;;;;;;6.22;5.10;;;11.80;99.90;;;;;;5035269;28;20504;-69
2022/03/10 01:32:35;;;;;;;5.22;4.70;;;11.80;99.90;;;;;;5035435;28;20101;-69
2022/03/10 01:35:05;;;;;;;5.78;4.65;;;11.80;99.90;;;;;;5034990;28;20053;-69
2022/03/10 01:37:32;;;;;;;7.00;5.35;;;11.70;99.90;;;;;;5031512;28;20395;-69
2022/03/10 01:39:58;;;;;;;6.38;4.95;;;11.70;99.90;;;;;;5035500;28;20021;-69
2022/03/10 01:42:24;;;;;;;5.25;4.75;;;11.60;99.90;;;;;;5035394;28;20075;-70
2022/03/10 01:44:54;;;;;;;5.97;4.80;;;11.70;99.90;;;;;;5035074;28;20154;-70
2022/03/10 01:47:19;;;;;;;6.15;5.15;;;11.60;99.90;;;;;;5034807;28;20506;-69
2022/03/10 01:49:45;;;;;;;5.88;4.80;;;11.50;99.90;;;;;;5032308;28;20108;-69
2022/03/10 01:52:12;;;;;;;6.65;4.95;;;11.60;99.90;;;;;;5032257;28;20055;-69
2022/03/10 01:54:39;;;;;;;6.65;5.40;;;11.70;99.90;;;;;;5036847;28;20029;-70
2022/03/10 01:57:05;;;;;;;6.00;5.32;;;11.50;99.90;;;;;;5033563;28;20033;-69
2022/03/10 01:59:32;;;;;;;7.00;5.10;;;11.50;99.90;;;;;;5034566;28;20069;-69
2022/03/10 02:01:58;;;;;;;6.22;4.90;;;11.40;99.90;;;;;;5034493;28;20036;-69
2022/03/10 02:04:23;;;;;;;8.18;5.53;;;11.40;99.90;;;;;;5013872;28;20479;-69
2022/03/10 02:06:50;;;;;;;6.50;5.40;;;11.40;99.90;;;;;;5036394;28;20176;-69
2022/03/10 02:12:00;;;;;;;6.40;5.05;;;11.50;99.90;;;;;;5034521;28;20040;-69
2022/03/10 02:17:19;;;;;;;7.15;5.50;;;11.30;99.90;;;;;;5034454;28;20047;-69
2022/03/10 02:19:49;;;;;;;7.75;5.93;;;11.30;99.90;;;;;;5031679;28;20029;-70
2022/03/10 02:22:15;;;;;;;7.97;5.68;;;11.30;99.90;;;;;;5031239;28;20037;-69
2022/03/10 02:24:43;;;;;;;6.57;5.85;;;11.30;99.90;;;;;;5036683;28;20025;-69
2022/03/10 02:27:24;;;;;;;7.55;6.55;;;11.30;99.90;;;;;;5033866;28;20116;-69
2022/03/10 02:29:55;;;;;;;7.82;6.00;;;11.30;99.90;;;;;;5033035;28;20022;-69
2022/03/10 02:32:21;;;;;;;9.57;6.15;;;11.20;99.90;;;;;;5034191;28;20038;-69
2022/03/10 02:34:48;;;;;;;7.65;6.00;;;11.10;99.90;;;;;;5032733;28;20588;-69
2022/03/10 02:37:15;;;;;;;9.13;5.97;;;11.20;99.90;;;;;;5031354;28;20033;-69
2022/03/10 02:39:42;;;;;;;10.00;5.72;;;11.20;99.90;;;;;;5036187;28;20545;-70
2022/03/10 02:42:09;;;;;;;7.95;6.32;;;11.20;99.90;;;;;;5034174;28;20453;-69
2022/03/10 02:44:43;;;;;;;7.18;6.30;;;11.20;99.90;;;;;;5032454;28;20033;-69
2022/03/10 02:47:10;;;;;;;8.15;6.60;;;11.10;99.90;;;;;;5033892;28;20044;-69
2022/03/10 02:49:36;;;;;;;8.98;6.43;;;11.00;99.90;;;;;;5031137;28;20545;-69
2022/03/10 02:52:03;;;;;;;13.07;6.55;;;10.90;99.90;;;;;;5033991;28;20026;-69
2022/03/10 02:54:29;;;;;;;7.15;6.10;;;10.90;99.90;;;;;;5034995;28;20120;-68
2022/03/10 02:56:56;;;;;;;8.90;6.40;;;10.80;99.90;;;;;;5033682;28;20037;-69
2022/03/10 02:59:22;;;;;;;8.55;6.88;;;10.80;99.90;;;;;;5033905;28;20032;-69
2022/03/10 03:01:47;;;;;;;8.57;6.68;;;10.80;99.90;;;;;;5032630;28;20100;-69
2022/03/10 03:04:13;;;;;;;9.00;6.70;;;10.80;99.90;;;;;;5031247;28;20108;-68
2022/03/10 03:06:39;;;;;;;9.40;7.20;;;10.80;99.90;;;;;;5035736;28;20584;-68
2022/03/10 03:09:04;;;;;;;9.73;7.20;;;10.80;99.90;;;;;;5034964;28;20137;-69
2022/03/10 03:11:30;;;;;;;9.00;7.30;;;10.70;99.90;;;;;;5037913;28;20453;-69
2022/03/10 03:13:56;;;;;;;10.38;7.60;;;10.60;99.90;;;;;;5037574;28;20017;-68
2022/03/10 03:16:24;;;;;;;9.40;7.32;;;10.60;99.90;;;;;;5033713;28;20499;-69
2022/03/10 03:18:50;;;;;;;10.13;7.40;;;10.50;99.90;;;;;;5040136;28;20045;-69
2022/03/10 03:21:17;;;;;;;9.50;7.57;;;10.50;99.90;;;;;;5037587;28;20501;-69
2022/03/10 03:23:43;;;;;;;10.98;7.53;;;10.60;99.90;;;;;;5035940;28;20031;-69
2022/03/10 03:26:09;;;;;;;8.18;7.30;;;10.50;99.90;;;;;;5037741;28;20029;-68
2022/03/10 03:28:35;;;;;;;11.23;7.75;;;10.40;99.90;;;;;;5034272;28;20405;-68
2022/03/10 03:31:00;;;;;;;9.35;7.95;;;10.40;99.90;;;;;;5037863;28;20022;-69
2022/03/10 03:33:26;;;;;;;10.60;7.28;;;10.30;99.90;;;;;;5038160;28;20037;-68
2022/03/10 03:35:52;;;;;;;9.57;6.93;;;10.30;99.90;;;;;;5037221;28;20453;-68
2022/03/10 03:38:17;;;;;;;9.52;7.05;;;10.30;99.90;;;;;;5037161;28;20341;-69
2022/03/10 03:40:43;;;;;;;8.27;7.32;;;10.20;99.90;;;;;;5035256;28;20029;-69
2022/03/10 03:43:09;;;;;;;9.68;6.65;;;10.30;99.90;;;;;;5035685;28;20048;-69
2022/03/10 03:45:34;;;;;;;7.97;6.68;;;10.20;99.90;;;;;;5039007;28;20120;-69
2022/03/10 03:48:00;;;;;;;8.05;6.60;;;10.20;99.90;;;;;;5035834;28;20382;-69
2022/03/10 03:50:26;;;;;;;9.63;6.90;;;10.20;99.90;;;;;;5037045;28;20056;-69
2022/03/10 03:52:52;;;;;;;8.77;7.13;;;10.20;99.90;;;;;;5035624;28;20056;-69
2022/03/10 03:55:17;;;;;;;7.90;6.47;;;10.10;99.90;;;;;;5034000;28;20030;-69
2022/03/10 03:57:43;;;;;;;8.18;6.85;;;10.20;99.90;;;;;;5038965;28;20063;-69
2022/03/10 04:00:10;;;;;;;7.97;6.53;;;10.20;99.90;;;;;;5037016;28;20029;-69
2022/03/10 04:02:37;;;;;;;9.60;6.82;;;10.20;99.90;;;;;;5035830;28;20032;-69
2022/03/10 04:05:05;;;;;;;9.07;7.13;;;10.20;99.90;;;;;;5036766;28;20025;-68
2022/03/10 04:07:31;;;;;;;8.02;7.10;;;10.20;99.90;;;;;;5032874;28;20029;-69
2022/03/10 04:09:57;;;;;;;9.45;7.05;;;10.10;99.90;;;;;;5037786;28;20026;-69
2022/03/10 04:12:23;;;;;;;9.70;7.13;;;10.10;99.90;;;;;;5037555;28;20529;-69
2022/03/10 04:14:49;;;;;;;10.55;7.72;;;10.10;99.90;;;;;;5036691;28;20025;-68
2022/03/10 04:17:14;;;;;;;9.98;8.07;;;10.10;99.90;;;;;;5036635;28;20048;-69
2022/03/10 04:19:40;;;;;;;9.35;7.85;;;10.00;99.90;;;;;;5033678;28;20029;-69
2022/03/10 04:22:06;;;;;;;8.95;7.80;;;10.00;99.90;;;;;;5035221;28;20030;-69
2022/03/10 04:24:32;;;;;;;12.32;7.88;;;10.00;99.90;;;;;;5036602;28;20108;-69
2022/03/10 04:26:57;;;;;;;10.98;8.43;;;9.90;99.90;;;;;;5035717;28;20418;-70
2022/03/10 04:29:23;;;;;;;11.20;8.38;;;9.90;99.90;;;;;;5035186;28;20021;-70
2022/03/10 04:31:49;;;;;;;12.32;8.68;;;9.90;99.90;;;;;;5035063;28;20478;-70
2022/03/10 04:34:15;;;;;;;11.07;8.18;;;9.90;99.90;;;;;;5033366;28;20025;-69
2022/03/10 04:36:41;;;;;;;8.95;8.05;;;9.80;99.90;;;;;;5037858;28;20080;-69
2022/03/10 04:39:06;;;;;;;10.90;8.73;;;9.90;99.90;;;;;;5036589;28;20513;-69
2022/03/10 04:41:34;;;;;;;9.60;8.60;;;9.80;99.90;;;;;;5034829;28;20033;-70
2022/03/10 04:44:00;;;;;;;10.40;9.40;;;9.90;99.90;;;;;;5036186;28;20027;-70
2022/03/10 04:46:25;;;;;;;13.40;9.05;;;9.90;99.90;;;;;;5032456;28;20041;-69
2022/03/10 04:48:51;;;;;;;9.90;8.75;;;9.90;99.90;;;;;;5038202;28;20475;-69
2022/03/10 04:51:17;;;;;;;10.00;9.00;;;9.80;99.90;;;;;;5035642;28;20545;-70
2022/03/10 04:53:43;;;;;;;10.60;9.38;;;9.80;99.90;;;;;;5035773;28;20025;-67
2022/03/10 04:56:09;;;;;;;10.60;9.00;;;9.80;99.90;;;;;;5036276;28;20037;-69
2022/03/10 04:58:34;;;;;;;10.18;9.18;;;9.60;99.90;;;;;;5032906;28;20453;-70
2022/03/10 05:01:00;;;;;;;10.55;8.88;;;9.50;99.90;;;;;;5036440;28;20032;-70
2022/03/10 05:03:26;;;;;;;10.23;9.23;;;9.50;99.90;;;;;;5036172;28;20051;-70
2022/03/10 05:05:51;;;;;;;14.02;8.85;;;9.30;99.90;;;;;;5033729;28;20030;-69
2022/03/10 05:08:17;;;;;;;11.63;9.77;;;9.30;99.90;;;;;;5036099;28;20029;-70
2022/03/10 05:10:43;;;;;;;13.07;9.57;;;9.40;99.90;;;;;;5033541;28;20030;-69
2022/03/10 05:13:09;;;;;;;11.40;10.15;;;9.40;99.90;;;;;;5033105;28;20434;-70
2022/03/10 05:15:35;;;;;;;13.55;11.63;;;9.30;99.90;;;;;;5037365;28;20091;-69
2022/03/10 05:18:02;;;;;;;14.32;12.93;;;9.40;99.90;;;;;;5035971;28;20041;-69
2022/03/10 05:20:30;;;;;;;15.10;13.55;;;9.40;99.90;;;;;;5033826;28;20021;-69
2022/03/10 05:22:58;;;;;;;15.05;13.70;;;9.30;99.90;;;;;;5034872;28;20052;-70
2022/03/10 05:25:33;;;;;;;13.05;11.43;;;9.30;99.90;;;;;;5031490;28;20124;-70
2022/03/10 05:27:59;;;;;;;14.23;12.73;;;9.30;99.90;;;;;;5048986;28;20095;-68
2022/03/10 05:30:25;;;;;;;14.45;13.05;;;9.40;99.90;;;;;;5035903;28;20108;-70
2022/03/10 05:32:51;;;;;;;13.77;12.07;;;9.40;99.90;;;;;;5035096;28;20076;-69
2022/03/10 05:35:18;;;;;;;13.38;11.68;;;9.50;99.90;;;;;;5034901;28;20044;-69
2022/03/10 05:37:45;;;;;;;14.90;11.52;;;9.60;99.90;;;;;;5033104;28;20461;-68
2022/03/10 05:40:15;;;;;;;13.40;12.00;;;9.50;99.90;;;;;;5033063;28;20034;-69
2022/03/10 05:42:41;;;;;;;13.95;12.13;;;9.40;99.90;;;;;;5035906;28;20561;-69
2022/03/10 05:45:08;;;;;;;12.55;11.35;;;9.40;99.90;;;;;;5033819;28;20033;-69
2022/03/10 05:47:35;;;;;;;16.77;12.13;;;9.30;99.90;;;;;;5035105;28;20022;-68
2022/03/10 05:50:02;;;;;;;13.60;11.75;;;9.40;99.90;;;;;;5034484;28;20514;-69
2022/03/10 05:52:28;;;;;;;12.30;10.52;;;9.40;99.90;;;;;;5030418;28;20026;-69
2022/03/10 05:54:53;;;;;;;12.27;10.07;;;9.50;99.90;;;;;;5037092;28;20029;-69
2022/03/10 05:57:19;;;;;;;11.80;9.65;;;9.40;99.90;;;;;;5034571;28;20544;-69
2022/03/10 05:59:45;;;;;;;13.40;9.60;;;9.40;99.90;;;;;;5033552;28;20033;-68
2022/03/10 06:02:10;;;;;;;10.77;9.68;;;9.50;99.90;;;;;;5034728;28;20036;-68
2022/03/10 06:04:36;;;;;;;12.32;9.70;;;9.50;99.90;;;;;;5031945;28;20087;-69
2022/03/10 06:07:02;;;;;;;12.23;9.55;;;9.50;99.90;;;;;;5034966;28;20096;-69
2022/03/10 06:09:28;;;;;;;11.25;9.98;;;9.60;99.90;;;;;;5035431;28;20380;-68
2022/03/10 06:11:54;;;;;;;13.70;10.77;;;9.60;99.90;;;;;;5034771;28;20018;-68
2022/03/10 06:14:20;;;;;;;11.35;10.15;;;9.60;99.90;;;;;;5034755;28;20485;-69
2022/03/10 06:16:46;;;;;;;11.60;10.13;;;9.60;99.90;;;;;;5032737;28;20045;-69
2022/03/10 06:19:11;;;;;;;11.57;9.80;;;9.60;99.90;;;;;;5034899;28;20104;-69
2022/03/10 06:21:38;;;;;;;12.15;10.00;;;9.60;99.90;;;;;;5034696;28;20021;-69
2022/03/10 06:24:05;;;;;;;11.52;9.50;;;9.70;99.90;;;;;;5033245;28;20025;-69
2022/03/10 06:26:31;;;;;;;12.05;10.10;;;9.80;99.90;;;;;;5034740;28;20371;-69
2022/03/10 06:28:56;;;;;;;13.32;9.48;;;9.80;99.90;;;;;;5034231;28;20032;-69
2022/03/10 06:31:24;;;;;;;13.48;10.55;;;9.70;99.90;;;;;;5030448;28;20036;-69
2022/03/10 06:33:54;;;;;;;15.55;11.48;;;9.80;99.90;;;;;;5036035;28;20017;-69
2022/03/10 06:36:20;;;;;;;12.57;10.82;;;9.70;99.90;;;;;;5034165;28;20044;-69
2022/03/10 06:38:46;;;;;;;14.63;11.75;;;9.90;99.90;;;;;;5032788;28;20033;-69
2022/03/10 06:41:11;;;;;;;12.70;11.13;;;9.90;99.90;;;;;;5034767;28;20116;-69
2022/03/10 06:43:37;;;;;;;12.52;11.10;;;9.80;99.90;;;;;;5030992;28;20104;-69
2022/03/10 06:46:04;;;;;;;14.75;12.35;;;9.80;99.90;;;;;;5034581;28;20030;-69
2022/03/10 06:48:29;;;;;;;29.45;26.80;;;9.80;99.90;;;;;;5034844;28;20530;-69
2022/03/10 06:50:55;;;;;;;16.35;14.65;;;9.70;99.90;;;;;;5034102;28;20026;-69
2022/03/10 06:53:21;;;;;;;14.85;12.70;;;9.90;99.90;;;;;;5034572;28;20041;-69
2022/03/10 06:55:47;;;;;;;13.43;12.13;;;9.90;99.90;;;;;;5032378;28;20049;-69
2022/03/10 06:58:13;;;;;;;13.60;11.43;;;9.90;99.90;;;;;;5031672;28;20025;-69
2022/03/10 07:00:39;;;;;;;15.88;12.82;;;9.90;99.90;;;;;;5068157;28;20415;-69
2022/03/10 07:03:04;;;;;;;15.18;12.48;;;9.90;99.90;;;;;;5032142;28;20035;-69
2022/03/10 07:05:30;;;;;;;13.52;12.20;;;9.80;99.90;;;;;;5034085;28;20055;-69
2022/03/10 07:07:56;;;;;;;15.50;13.27;;;9.90;99.90;;;;;;5032467;28;20517;-69
2022/03/10 07:10:22;;;;;;;14.73;13.02;;;9.90;99.90;;;;;;5030313;28;20017;-68
2022/03/10 07:12:47;;;;;;;16.00;13.68;;;10.00;99.90;;;;;;5035946;28;20392;-69
2022/03/10 07:15:14;;;;;;;17.73;13.40;;;9.90;99.90;;;;;;5034365;28;20587;-69
2022/03/10 07:17:41;;;;;;;16.48;13.23;;;9.90;99.90;;;;;;5032148;28;20042;-69
2022/03/10 07:20:08;;;;;;;16.23;12.80;;;9.80;99.90;;;;;;5033830;28;20029;-69
2022/03/10 07:22:34;;;;;;;15.07;13.27;;;9.90;99.90;;;;;;5030245;28;20107;-69
2022/03/10 07:25:00;;;;;;;14.82;13.18;;;9.80;99.90;;;;;;5035052;28;20486;-68
2022/03/10 07:27:26;;;;;;;16.52;14.23;;;9.90;99.90;;;;;;5042307;28;20060;-68
2022/03/10 07:29:52;;;;;;;15.65;13.88;;;9.80;99.90;;;;;;5038210;28;20068;-69
2022/03/10 07:32:18;;;;;;;16.48;13.27;;;9.90;99.90;;;;;;5033427;28;20056;-69
2022/03/10 07:34:47;;;;;;;15.45;13.23;;;10.00;99.90;;;;;;5031301;28;20029;-69
2022/03/10 07:37:14;;;;;;;20.33;13.80;;;10.00;99.90;;;;;;5031510;28;20069;-68
2022/03/10 07:39:40;;;;;;;17.55;14.32;;;9.90;99.90;;;;;;5035734;28;20017;-68
2022/03/10 07:42:06;;;;;;;19.15;14.25;;;9.90;99.90;;;;;;5032295;28;20036;-69
2022/03/10 07:44:32;;;;;;;23.77;15.23;;;9.90;99.90;;;;;;5033666;28;20029;-68
2022/03/10 07:46:58;;;;;;;20.45;14.30;;;9.90;99.90;;;;;;5033167;28;20031;-69
2022/03/10 07:49:24;;;;;;;17.33;12.88;;;10.00;99.90;;;;;;5029450;28;20379;-69
2022/03/10 07:51:50;;;;;;;16.42;12.60;;;9.90;99.90;;;;;;5035829;28;20475;-69
2022/03/10 07:54:15;;;;;;;17.05;14.90;;;9.90;99.90;;;;;;5033707;28;20033;-69
2022/03/10 07:56:41;;;;;;;15.73;12.75;;;9.90;99.90;;;;;;5035156;28;20044;-69
2022/03/10 07:59:07;;;;;;;16.00;12.18;;;10.00;99.90;;;;;;5037009;28;20021;-64
2022/03/10 08:01:33;;;;;;;13.20;11.32;;;10.00;99.90;;;;;;5033235;28;20040;-69
2022/03/10 08:03:59;;;;;;;14.18;12.63;;;10.10;99.90;;;;;;5037884;28;20099;-68
2022/03/10 08:06:26;;;;;;;16.95;12.70;;;10.10;99.90;;;;;;5036727;28;20064;-68
2022/03/10 08:08:52;;;;;;;16.17;12.57;;;9.90;99.90;;;;;;5036993;28;20100;-68
2022/03/10 08:11:18;;;;;;;16.05;13.10;;;10.10;99.90;;;;;;5037158;28;20515;-68
2022/03/10 08:13:44;;;;;;;17.38;14.32;;;10.00;99.90;;;;;;5033156;28;20022;-68
2022/03/10 08:16:10;;;;;;;18.15;13.85;;;9.90;99.90;;;;;;5035013;28;20490;-68
2022/03/10 08:18:37;;;;;;;18.30;13.68;;;9.90;99.90;;;;;;5038827;28;20059;-68
2022/03/10 08:21:03;;;;;;;15.73;13.35;;;10.00;99.90;;;;;;5035392;28;20045;-68
2022/03/10 08:23:29;;;;;;;18.33;13.95;;;10.00;99.90;;;;;;5036711;28;20087;-68
2022/03/10 08:25:56;;;;;;;14.88;13.27;;;10.10;99.90;;;;;;5036540;28;20119;-69
2022/03/10 08:28:21;;;;;;;32.38;28.92;;;10.10;99.90;;;;;;5032423;28;20025;-69
2022/03/10 08:30:47;;;;;;;15.65;12.48;;;10.20;99.90;;;;;;5038445;28;20032;-69
2022/03/10 08:33:13;;;;;;;15.07;12.40;;;10.10;99.90;;;;;;5036401;28;20100;-68
2022/03/10 08:35:39;;;;;;;16.50;12.57;;;10.20;99.90;;;;;;5033945;28;20129;-69
2022/03/10 08:38:05;;;;;;;18.13;13.85;;;10.20;99.90;;;;;;5036528;28;20412;-68
2022/03/10 08:40:31;;;;;;;17.08;11.85;;;10.20;99.90;;;;;;5032725;28;20845;-69
2022/03/10 08:42:56;;;;;;;17.27;13.68;;;10.30;99.90;;;;;;5037970;28;20474;-69
2022/03/10 08:45:26;;;;;;;15.32;12.63;;;10.20;99.90;;;;;;5036563;28;20479;-68
2022/03/10 08:47:53;;;;;;;14.98;13.00;;;10.20;99.90;;;;;;5036255;28;20029;-68
2022/03/10 08:50:19;;;;;;;16.30;13.20;;;10.30;99.90;;;;;;5036216;28;20037;-68
2022/03/10 08:52:45;;;;;;;14.30;12.80;;;10.40;99.90;;;;;;5034371;28;20041;-68
2022/03/10 08:55:12;;;;;;;16.15;12.25;;;10.40;99.90;;;;;;5033839;28;20101;-68
2022/03/10 08:57:39;;;;;;;17.08;14.52;;;10.50;99.90;;;;;;5035909;28;20048;-68
2022/03/10 09:00:07;;;;;;;19.20;16.10;;;10.50;99.90;;;;;;5034891;28;20514;-68
2022/03/10 09:02:33;;;;;;;23.60;16.02;;;10.40;99.90;;;;;;5035916;28;20509;-68
2022/03/10 09:04:59;;;;;;;15.02;13.52;;;10.60;99.90;;;;;;5035982;28;20029;-68
2022/03/10 09:07:25;;;;;;;16.38;13.65;;;10.60;99.90;;;;;;5031406;28;20018;-68
2022/03/10 09:09:50;;;;;;;17.33;13.88;;;10.60;99.90;;;;;;5037886;28;20033;-68
2022/03/10 09:12:16;;;;;;;15.60;12.90;;;10.70;99.90;;;;;;5035865;28;20057;-68
2022/03/10 09:14:42;;;;;;;15.93;12.60;;;10.60;99.90;;;;;;5034196;28;20052;-68
2022/03/10 09:17:08;;;;;;;16.73;12.05;;;10.60;99.90;;;;;;5035731;28;20043;-68
2022/03/10 09:19:34;;;;;;;16.20;12.48;;;10.80;99.90;;;;;;5032271;28;20025;-68
2022/03/10 09:22:01;;;;;;;15.32;11.35;;;10.90;99.90;;;;;;5036541;28;20445;-68
2022/03/10 09:24:26;;;;;;;16.08;11.98;;;10.90;99.90;;;;;;5036088;28;20034;-68
2022/03/10 09:26:52;;;;;;;16.27;13.02;;;10.80;99.90;;;;;;5035184;28;20028;-68
2022/03/10 09:29:18;;;;;;;15.93;13.40;;;10.70;99.90;;;;;;5034086;28;20102;-68
2022/03/10 09:31:43;;;;;;;17.92;13.50;;;10.90;99.90;;;;;;5033312;28;20017;-68
2022/03/10 09:34:09;;;;;;;18.05;14.00;;;11.00;99.90;;;;;;5033431;28;20036;-68
2022/03/10 09:36:35;;;;;;;17.25;15.05;;;11.10;99.90;;;;;;5037323;28;20033;-68
2022/03/10 09:39:01;;;;;;;18.77;15.10;;;11.10;99.90;;;;;;5032677;28;20085;-68
2022/03/10 09:41:28;;;;;;;19.83;15.23;;;11.10;99.90;;;;;;5034994;28;20474;-68
2022/03/10 09:43:55;;;;;;;20.80;15.73;;;11.20;99.90;;;;;;5034623;28;20035;-68
2022/03/10 09:46:22;;;;;;;21.88;16.77;;;11.30;99.90;;;;;;5031784;28;20045;-68
2022/03/10 09:48:47;;;;;;;24.48;17.58;;;11.20;99.90;;;;;;5037087;28;20528;-68
2022/03/10 09:51:14;;;;;;;23.45;17.13;;;11.30;99.90;;;;;;5035174;28;20025;-68
2022/03/10 09:53:40;;;;;;;23.70;17.27;;;11.40;99.90;;;;;;5033528;28;20041;-68
2022/03/10 09:56:06;;;;;;;23.33;17.92;;;11.50;99.90;;;;;;5034578;28;20040;-68
2022/03/10 09:58:32;;;;;;;27.92;20.00;;;11.50;99.90;;;;;;5031119;28;20084;-68
2022/03/10 10:01:00;;;;;;;24.30;18.50;;;11.50;99.90;;;;;;5036169;28;20025;-68
2022/03/10 10:03:26;;;;;;;25.02;18.33;;;11.60;99.90;;;;;;5033993;28;20490;-68
2022/03/10 10:05:57;;;;;;;27.65;19.08;;;11.70;99.90;;;;;;5034819;28;20039;-68
2022/03/10 10:08:23;;;;;;;21.73;17.15;;;11.70;99.90;;;;;;5035306;28;20025;-68
2022/03/10 10:10:51;;;;;;;26.00;18.40;;;11.70;99.90;;;;;;5032834;28;20119;-68
2022/03/10 10:13:48;;;;;;;23.50;16.58;;;11.50;99.90;;;;;;5031388;28;20509;-68
2022/03/10 10:16:17;;;;;;;23.83;16.73;;;11.50;99.90;;;;;;5043365;28;20410;-69
2022/03/10 10:18:43;;;;;;;20.02;14.65;;;11.50;99.90;;;;;;5034452;28;20104;-68
2022/03/10 10:21:14;;;;;;;19.27;14.45;;;11.60;99.90;;;;;;5034735;28;20060;-68
2022/03/10 10:23:41;;;;;;;18.27;14.68;;;11.60;99.90;;;;;;5034948;28;20100;-68
2022/03/10 10:26:09;;;;;;;15.52;13.02;;;11.70;99.90;;;;;;5034187;28;20505;-68
2022/03/10 10:28:40;;;;;;;14.68;12.32;;;11.80;99.90;;;;;;5031003;28;20105;-68
2022/03/10 10:31:14;;;;;;;15.73;12.55;;;11.80;99.90;;;;;;5033521;28;20478;-68
2022/03/10 10:33:55;;;;;;;14.68;12.30;;;11.90;99.90;;;;;;5034568;28;20541;-67
2022/03/10 10:36:26;;;;;;;14.60;12.32;;;12.00;99.90;;;;;;5034569;28;20085;-68
2022/03/10 10:38:56;;;;;;;16.13;12.38;;;12.20;99.90;;;;;;5033853;28;20072;-68
2022/03/10 10:41:32;;;;;;;13.80;11.27;;;12.20;99.90;;;;;;5034193;28;20418;-68
2022/03/10 10:44:01;;;;;;;12.13;10.82;;;12.00;99.90;;;;;;5034086;28;20383;-69
2022/03/10 10:46:46;;;;;;;12.13;10.40;;;11.90;99.90;;;;;;5014404;28;20014;-68
2022/03/10 10:49:17;;;;;;;13.77;9.80;;;12.00;99.90;;;;;;5044330;28;20079;-68
2022/03/10 10:51:51;;;;;;;10.32;9.02;;;12.30;99.90;;;;;;5035160;28;20076;-68
2022/03/10 10:54:28;;;;;;;;;;;12.20;99.90;;;;;;5034456;28;20113;-68
2022/03/10 10:56:56;;;;;;;11.23;8.68;;;12.30;99.90;;;;;;5031312;28;20011;-68
2022/03/10 10:59:36;;;;;;;9.57;8.52;;;12.30;99.90;;;;;;5034173;28;20435;-68
2022/03/10 11:02:21;;;;;;;8.27;7.30;;;12.30;99.90;;;;;;5030810;28;20138;-68
2022/03/10 11:04:49;;;;;;;8.85;7.38;;;12.20;99.90;;;;;;5044288;28;20022;-68
2022/03/10 11:07:15;;;;;;;8.85;7.95;;;12.10;99.90;;;;;;5031564;28;20029;-68
2022/03/10 11:09:43;;;;;;;8.02;7.20;;;12.10;99.90;;;;;;5035681;28;20028;-68
2022/03/10 11:12:13;;;;;;;7.68;6.75;;;12.20;99.90;;;;;;5032462;28;20025;-68
2022/03/10 11:14:39;;;;;;;9.80;7.20;;;12.20;99.90;;;;;;5033841;28;20033;-68
2022/03/10 11:17:05;;;;;;;8.13;6.53;;;12.40;99.90;;;;;;5032534;28;20053;-68
2022/03/10 11:19:38;;;;;;;6.78;6.05;;;12.70;99.90;;;;;;5030590;28;20022;-68
2022/03/10 11:22:41;;;;;;;6.35;5.60;;;12.80;99.90;;;;;;5033740;28;20025;-68
2022/03/10 11:25:18;;;;;;;7.72;5.93;;;13.10;99.90;;;;;;5043889;28;20035;-67
2022/03/10 11:27:58;;;;;;;6.43;5.43;;;13.60;99.90;;;;;;5034913;28;20026;-67
2022/03/10 11:30:28;;;;;;;6.30;5.70;;;13.80;99.90;;;;;;5036967;28;20029;-67
2022/03/10 11:33:10;;;;;;;8.68;5.50;;;14.10;99.90;;;;;;5037825;28;20021;-71
2022/03/10 11:35:42;;;;;;;5.50;4.82;;;15.20;99.90;;;;;;5036267;28;20034;-70
2022/03/10 11:38:09;;;;;;;6.07;4.78;;;15.40;99.90;;;;;;5037322;28;20417;-71
2022/03/10 11:40:57;;;;;;;6.38;4.65;;;16.00;99.90;;;;;;5033935;28;20025;-71
2022/03/10 11:43:32;;;;;;;4.95;4.43;;;16.00;99.90;;;;;;5033829;28;20037;-71
2022/03/10 11:46:20;;;;;;;5.45;4.40;;;15.40;99.90;;;;;;5047190;28;20032;-71
2022/03/10 11:49:09;;;;;;;6.45;4.90;;;15.40;99.90;;;;;;5039261;28;20112;-61
2022/03/10 11:51:53;;;;;;;5.68;4.50;;;15.30;99.90;;;;;;5037359;28;20087;-63
2022/03/10 11:54:20;;;;;;;5.18;4.10;;;15.20;99.90;;;;;;5037353;28;20437;-62
2022/03/10 11:56:49;;;;;;;5.07;4.20;;;15.20;99.90;;;;;;5037282;28;20041;-63
2022/03/10 11:59:26;;;;;;;5.15;3.72;;;15.40;99.90;;;;;;5037529;28;20041;-62
2022/03/10 12:01:53;;;;;;;5.75;3.60;;;15.30;99.90;;;;;;5036040;28;20131;-62
2022/03/10 12:04:23;;;;;;;4.38;3.03;;;15.40;99.90;;;;;;5033832;28;20041;-62
2022/03/10 12:06:57;;;;;;;4.07;3.28;;;15.50;99.90;;;;;;5037467;28;20120;-64
2022/03/10 12:09:34;;;;;;;5.25;3.17;;;15.70;99.90;;;;;;5018786;28;20487;-62
2022/03/10 12:12:21;;;;;;;3.65;3.03;;;15.20;99.90;;;;;;5022783;28;20041;-63
2022/03/10 12:14:47;;;;;;;3.50;3.10;;;15.50;99.90;;;;;;5021217;28;20033;-63
2022/03/10 12:17:45;;;;;;;3.20;2.90;;;15.30;99.90;;;;;;5022331;28;20041;-63
2022/03/10 12:20:14;;;;;;;3.88;2.83;;;15.30;99.90;;;;;;4965600;28;20030;-64
2022/03/10 12:22:40;;;;;;;4.30;3.00;;;15.40;99.90;;;;;;4991824;28;20046;-62
2022/03/10 12:25:22;;;;;;;2.85;2.53;;;15.20;99.90;;;;;;4991771;28;20022;-63
2022/03/10 12:27:52;;;;;;;2.97;2.30;;;15.50;99.90;;;;;;4991969;28;20026;-65
2022/03/10 12:30:24;;;;;;;3.58;2.75;;;15.60;99.90;;;;;;4991800;28;20085;-64
2022/03/10 12:32:52;;;;;;;3.15;2.63;;;15.70;99.90;;;;;;4991332;28;20058;-63
2022/03/10 12:35:31;;;;;;;3.28;2.90;;;15.30;99.90;;;;;;4990701;28;20105;-61
2022/03/10 12:37:57;;;;;;;3.30;2.75;;;15.30;99.90;;;;;;4991308;28;20038;-63
2022/03/10 12:40:26;;;;;;;3.55;2.63;;;15.10;99.90;;;;;;4990961;28;20031;-63
2022/03/10 12:42:57;;;;;;;4.30;2.63;;;15.10;99.90;;;;;;4991960;28;20038;-62
2022/03/10 12:45:23;;;;;;;5.45;3.55;;;14.80;99.90;;;;;;4990858;28;20106;-60
2022/03/10 12:47:56;;;;;;;9.35;8.45;;;14.70;99.90;;;;;;4989990;28;20117;-63
2022/03/10 12:50:22;;;;;;;3.90;3.30;;;14.80;99.90;;;;;;4991125;28;20462;-62